Pacific Hope — 3FLH6 — position and weather

sailwx.info

Track history (hours):
 
Tides and Currents Weather Stations Pressure Air Temp Water Temp Dewpoint Dewpoint Depression Visibility Wind Speed Wind Dir Waves Ship Positions

Pacific Hope

Last reported at 2016-May-23 16:33 UTC. Time now 2016-May-29 05:47 UTC.
Position S 36°12' E 174°52'.

Length 169 m; draft 9.9 m.

Type: Cargo ship. MMSI: 351849000.

Date/timePositionNaut miles runAvg speedWind from/ knotsBaromVisibWave heightAir tempDewpointWater temp
2016-May-23 16:33S 36°12' E 174°52'1111.2
2016-May-23 15:33S 36°22' E 174°58'1010.0
2016-May-23 14:33S 36°32' E 174°59'1110.6
2016-May-23 13:33S 36°41' E 174°53'9 8.8
2016-May-23 12:33S 36°50' E 174°50'2 2.4
2016-May-23 11:33S 36°51' E 174°47'0 0.0
2016-May-23 09:15S 36°51' E 174°47'0 0.0
2016-May-23 08:33S 36°51' E 174°47'0 0.0
2016-May-23 07:33S 36°51' E 174°47'0 0.0
2016-May-23 06:33S 36°51' E 174°47'0 0.0
2016-May-23 05:33S 36°51' E 174°47'0 0.0
2016-May-23 04:33S 36°51' E 174°47'0 0.0
2016-May-23 03:33S 36°51' E 174°47'0 0.0
2016-May-23 02:33S 36°51' E 174°47'0 0.0
2016-May-23 01:27S 36°51' E 174°47'0 0.0
2016-May-23 00:33S 36°51' E 174°47'0 0.0
2016-May-22 23:27S 36°51' E 174°47'0 0.0
2016-May-22 22:33S 36°51' E 174°47'0 0.0
2016-May-22 21:28S 36°51' E 174°47'0 0.0
2016-May-22 20:28S 36°51' E 174°47'0 0.0
2016-May-22 19:28S 36°51' E 174°47'0 0.0
2016-May-22 18:28S 36°51' E 174°47'0 0.0
2016-May-22 17:28S 36°51' E 174°47'0 0.0
2016-May-22 16:28S 36°51' E 174°47'0 0.0
2016-May-22 15:10S 36°51' E 174°47'0 0.0
2016-May-22 14:28S 36°51' E 174°47'0 0.0
2016-May-22 13:28S 36°51' E 174°47'0 0.0
2016-May-22 12:28S 36°51' E 174°47'0 0.0
2016-May-22 11:28S 36°51' E 174°47'0 0.0
2016-May-22 10:16S 36°51' E 174°47'0 0.0
2016-May-22 08:28S 36°51' E 174°47'0 0.0
2016-May-22 07:22S 36°51' E 174°47'0 0.0
2016-May-22 06:28S 36°51' E 174°47'0 0.0
2016-May-22 05:28S 36°51' E 174°47'0 0.0
2016-May-22 04:28S 36°51' E 174°47'0 0.0
2016-May-22 03:28S 36°51' E 174°47'0 0.0
2016-May-22 02:28S 36°51' E 174°47'0 0.0
2016-May-22 01:28S 36°51' E 174°47'0 0.0
2016-May-22 00:28S 36°51' E 174°47'0 0.0
2016-May-21 23:28S 36°51' E 174°47'0 0.0
2016-May-21 22:28S 36°51' E 174°47'0 0.0
2016-May-21 21:28S 36°51' E 174°47'0 0.0
2016-May-21 20:28S 36°51' E 174°47'0 0.0
2016-May-21 19:28S 36°51' E 174°47'3 3.3
2016-May-21 18:33S 36°49' E 174°50'10 9.6
2016-May-21 17:33S 36°40' E 174°54'8 8.3
2016-May-21 16:33S 36°34' E 175°02'1312.8
2016-May-21 15:33S 36°26' E 175°14'1611.7
2016-May-21 14:13S 36°26' E 175°34'913.5
2016-May-21 13:31S 36°30' E 175°44'  
Track history (hours):
 
Tides and Currents Weather Stations Pressure Air Temp Water Temp Dewpoint Dewpoint Depression Visibility Wind Speed Wind Dir Waves Ship Positions

Pacific Hope

Last reported at 2016-May-23 16:33 UTC. Time now 2016-May-29 05:47 UTC.
Position S 36°12' E 174°52'.

Length 169 m; draft 9.9 m.

Type: Cargo ship. MMSI: 351849000.

Date/timePositionNaut miles runAvg speedWind from/ knotsBaromVisibWave heightAir tempDewpointWater temp
2016-May-23 16:33S 36°12' E 174°52'1111.2
2016-May-23 15:33S 36°22' E 174°58'1010.0
2016-May-23 14:33S 36°32' E 174°59'1110.6
2016-May-23 13:33S 36°41' E 174°53'9 8.8
2016-May-23 12:33S 36°50' E 174°50'2 2.4
2016-May-23 11:33S 36°51' E 174°47'0 0.0
2016-May-23 09:15S 36°51' E 174°47'0 0.0
2016-May-23 08:33S 36°51' E 174°47'0 0.0
2016-May-23 07:33S 36°51' E 174°47'0 0.0
2016-May-23 06:33S 36°51' E 174°47'0 0.0
2016-May-23 05:33S 36°51' E 174°47'0 0.0
2016-May-23 04:33S 36°51' E 174°47'0 0.0
2016-May-23 03:33S 36°51' E 174°47'0 0.0
2016-May-23 02:33S 36°51' E 174°47'0 0.0
2016-May-23 01:27S 36°51' E 174°47'0 0.0
2016-May-23 00:33S 36°51' E 174°47'0 0.0
2016-May-22 23:27S 36°51' E 174°47'0 0.0
2016-May-22 22:33S 36°51' E 174°47'0 0.0
2016-May-22 21:28S 36°51' E 174°47'0 0.0
2016-May-22 20:28S 36°51' E 174°47'0 0.0
2016-May-22 19:28S 36°51' E 174°47'0 0.0
2016-May-22 18:28S 36°51' E 174°47'0 0.0
2016-May-22 17:28S 36°51' E 174°47'0 0.0
2016-May-22 16:28S 36°51' E 174°47'0 0.0
2016-May-22 15:10S 36°51' E 174°47'0 0.0
2016-May-22 14:28S 36°51' E 174°47'0 0.0
2016-May-22 13:28S 36°51' E 174°47'0 0.0
2016-May-22 12:28S 36°51' E 174°47'0 0.0
2016-May-22 11:28S 36°51' E 174°47'0 0.0
2016-May-22 10:16S 36°51' E 174°47'0 0.0
2016-May-22 08:28S 36°51' E 174°47'0 0.0
2016-May-22 07:22S 36°51' E 174°47'0 0.0
2016-May-22 06:28S 36°51' E 174°47'0 0.0
2016-May-22 05:28S 36°51' E 174°47'0 0.0
2016-May-22 04:28S 36°51' E 174°47'0 0.0
2016-May-22 03:28S 36°51' E 174°47'0 0.0
2016-May-22 02:28S 36°51' E 174°47'0 0.0
2016-May-22 01:28S 36°51' E 174°47'0 0.0
2016-May-22 00:28S 36°51' E 174°47'0 0.0
2016-May-21 23:28S 36°51' E 174°47'0 0.0
2016-May-21 22:28S 36°51' E 174°47'0 0.0
2016-May-21 21:28S 36°51' E 174°47'0 0.0
2016-May-21 20:28S 36°51' E 174°47'0 0.0
2016-May-21 19:28S 36°51' E 174°47'3 3.3
2016-May-21 18:33S 36°49' E 174°50'10 9.6
2016-May-21 17:33S 36°40' E 174°54'8 8.3
2016-May-21 16:33S 36°34' E 175°02'1312.8
2016-May-21 15:33S 36°26' E 175°14'1611.7
2016-May-21 14:13S 36°26' E 175°34'913.5
2016-May-21 13:31S 36°30' E 175°44'  

Dump ship's entire track history